Low Land 5 — WDG8156 — position and weather

sailwx.info

Track history (hours):
 
Tides and Currents Weather Stations Pressure Air Temp Water Temp Dewpoint Dewpoint Depression Visibility Wind Speed Wind Dir Waves Ship Positions

Low Land 5

Owner: LOW LAND CONSTRUCTION CO. INC, THIBODAUX, LA. More information available from US FCC via Universal Licensing System and Coast Guard Vessel Documentation Center.

Last reported at 2018-Feb-24 22:06 UTC. Time now 2018-Feb-26 01:40 UTC.
Position N 29°36' W 090°40'.

Length 14 m.

Type: Tug. MMSI: 366842360.

Date/timePositionNaut miles runAvg speedWind from/ knotsBaromVisibWave heightAir tempDewpointWater temp
2018-Feb-24 22:06N 29°36' W 090°40'0 2.1
2018-Feb-24 22:00N 29°36' W 090°40'0 0.1
2018-Feb-24 21:28N 29°36' W 090°40'0 0.0
2018-Feb-24 21:00N 29°36' W 090°40'2 3.8
2018-Feb-24 20:30N 29°35' W 090°38'3 6.0
2018-Feb-24 20:00N 29°34' W 090°35'3 6.4
2018-Feb-24 19:30N 29°34' W 090°31'1 0.0
2018-Feb-24 07:19N 29°34' W 090°32'3 6.2
2018-Feb-24 06:49N 29°35' W 090°35'2 6.2
2018-Feb-24 06:30N 29°35' W 090°37'3 5.2
2018-Feb-24 06:00N 29°36' W 090°40'0 0.0
2018-Feb-24 05:30N 29°36' W 090°40'0 0.0
2018-Feb-24 05:00N 29°36' W 090°40'0 0.0
2018-Feb-24 04:30N 29°36' W 090°40'0 0.0
2018-Feb-24 04:00N 29°36' W 090°40'0 0.0
2018-Feb-24 03:30N 29°36' W 090°40'0 0.0
2018-Feb-24 03:00N 29°36' W 090°40'0 0.0
2018-Feb-24 02:30N 29°36' W 090°40'0 0.0
2018-Feb-24 02:00N 29°36' W 090°40'0 0.0
2018-Feb-24 01:30N 29°36' W 090°40'0 0.0
2018-Feb-24 01:00N 29°36' W 090°40'0 0.0
2018-Feb-24 00:30N 29°36' W 090°40'0 0.0
2018-Feb-24 00:00N 29°36' W 090°40'0 0.0
2018-Feb-23 23:30N 29°36' W 090°40'0 0.0
2018-Feb-23 23:00N 29°36' W 090°40'0 0.0
2018-Feb-23 22:30N 29°36' W 090°40'0 0.0
2018-Feb-23 22:00N 29°36' W 090°40'0 0.0
2018-Feb-23 21:30N 29°36' W 090°40'0 0.0
2018-Feb-23 21:00N 29°36' W 090°40'0 0.0
2018-Feb-23 20:30N 29°36' W 090°40'0 0.0
2018-Feb-23 20:00N 29°36' W 090°40'0 0.0
2018-Feb-23 19:30N 29°36' W 090°40'0 0.0
2018-Feb-23 19:00N 29°36' W 090°40'0 0.2
2018-Feb-23 18:30N 29°36' W 090°40'0 0.0
2018-Feb-23 18:00N 29°36' W 090°40'0 0.2
2018-Feb-23 17:30N 29°36' W 090°40'  
Track history (hours):
 
Tides and Currents Weather Stations Pressure Air Temp Water Temp Dewpoint Dewpoint Depression Visibility Wind Speed Wind Dir Waves Ship Positions

Low Land 5

Owner: LOW LAND CONSTRUCTION CO. INC, THIBODAUX, LA. More information available from US FCC via Universal Licensing System and Coast Guard Vessel Documentation Center.

Last reported at 2018-Feb-24 22:06 UTC. Time now 2018-Feb-26 01:40 UTC.
Position N 29°36' W 090°40'.

Length 14 m.

Type: Tug. MMSI: 366842360.

Date/timePositionNaut miles runAvg speedWind from/ knotsBaromVisibWave heightAir tempDewpointWater temp
2018-Feb-24 22:06N 29°36' W 090°40'0 2.1
2018-Feb-24 22:00N 29°36' W 090°40'0 0.1
2018-Feb-24 21:28N 29°36' W 090°40'0 0.0
2018-Feb-24 21:00N 29°36' W 090°40'2 3.8
2018-Feb-24 20:30N 29°35' W 090°38'3 6.0
2018-Feb-24 20:00N 29°34' W 090°35'3 6.4
2018-Feb-24 19:30N 29°34' W 090°31'1 0.0
2018-Feb-24 07:19N 29°34' W 090°32'3 6.2
2018-Feb-24 06:49N 29°35' W 090°35'2 6.2
2018-Feb-24 06:30N 29°35' W 090°37'3 5.2
2018-Feb-24 06:00N 29°36' W 090°40'0 0.0
2018-Feb-24 05:30N 29°36' W 090°40'0 0.0
2018-Feb-24 05:00N 29°36' W 090°40'0 0.0
2018-Feb-24 04:30N 29°36' W 090°40'0 0.0
2018-Feb-24 04:00N 29°36' W 090°40'0 0.0
2018-Feb-24 03:30N 29°36' W 090°40'0 0.0
2018-Feb-24 03:00N 29°36' W 090°40'0 0.0
2018-Feb-24 02:30N 29°36' W 090°40'0 0.0
2018-Feb-24 02:00N 29°36' W 090°40'0 0.0
2018-Feb-24 01:30N 29°36' W 090°40'0 0.0
2018-Feb-24 01:00N 29°36' W 090°40'0 0.0
2018-Feb-24 00:30N 29°36' W 090°40'0 0.0
2018-Feb-24 00:00N 29°36' W 090°40'0 0.0
2018-Feb-23 23:30N 29°36' W 090°40'0 0.0
2018-Feb-23 23:00N 29°36' W 090°40'0 0.0
2018-Feb-23 22:30N 29°36' W 090°40'0 0.0
2018-Feb-23 22:00N 29°36' W 090°40'0 0.0
2018-Feb-23 21:30N 29°36' W 090°40'0 0.0
2018-Feb-23 21:00N 29°36' W 090°40'0 0.0
2018-Feb-23 20:30N 29°36' W 090°40'0 0.0
2018-Feb-23 20:00N 29°36' W 090°40'0 0.0
2018-Feb-23 19:30N 29°36' W 090°40'0 0.0
2018-Feb-23 19:00N 29°36' W 090°40'0 0.2
2018-Feb-23 18:30N 29°36' W 090°40'0 0.0
2018-Feb-23 18:00N 29°36' W 090°40'0 0.2
2018-Feb-23 17:30N 29°36' W 090°40'  

Dump ship's entire track history